Time;durP1;ratioP1;P1;durP2;ratioP2;P2;SDS_P1;SDS_P2;PMS_P1;PMS_P2;Temp;Humidity;BMP_temperature;BMP_pressure;BME280_temperature;BME280_humidity;BME280_pressure;Samples;Min_cycle;Max_cycle;Signal;HPM_P1;HPM_P2
2022/09/20 00:01:34;;;;;;;3.17;2.83;;;9.30;99.90;;;11.01;79.25;98278.13;5069863;28;20513;-75
2022/09/20 00:04:05;;;;;;;8.37;3.07;;;9.40;99.90;;;10.63;79.14;98212.94;5067196;28;20472;-77
2022/09/20 00:06:33;;;;;;;3.97;3.53;;;9.40;99.90;;;10.76;79.96;98274.22;5067173;28;20460;-83
2022/09/20 00:09:01;;;;;;;4.97;3.10;;;9.30;99.90;;;10.91;79.60;98284.78;5072432;28;20486;-79
2022/09/20 00:11:31;;;;;;;4.33;3.27;;;9.20;99.90;;;10.91;78.42;98276.66;5071878;28;20486;-79
2022/09/20 00:14:07;;;;;;;4.93;3.20;;;9.30;99.90;;;10.90;79.25;98271.50;5069819;28;20470;-79
2022/09/20 00:16:37;;;;;;;4.93;3.10;;;9.30;99.90;;;10.88;79.10;98276.28;5083426;28;20485;-76
2022/09/20 00:19:06;;;;;;;3.30;3.00;;;9.40;99.90;;;10.92;79.36;98277.50;5072995;28;20458;-79
2022/09/20 00:21:36;;;;;;;2.30;2.10;;;9.40;99.90;;;10.72;79.73;98286.50;5053797;28;20462;-78
2022/09/20 00:24:04;;;;;;;3.20;2.60;;;9.40;99.90;;;10.23;80.16;98222.91;5068196;28;20497;-83
2022/09/20 00:26:32;;;;;;;5.30;2.83;;;9.30;99.90;;;10.54;79.43;98272.78;5069900;28;20508;-77
2022/09/20 00:29:00;;;;;;;4.30;2.57;;;9.30;99.90;;;10.62;80.08;98280.69;5068682;28;20496;-82
2022/09/20 00:31:29;;;;;;;5.33;2.73;;;9.30;99.90;;;10.69;79.34;98269.88;5072345;28;20811;-80
2022/09/20 00:36:43;;;;;;;4.73;2.60;;;9.30;99.90;;;10.34;80.02;98262.78;5045860;28;20452;-77
2022/09/20 00:39:13;;;;;;;3.30;2.27;;;9.20;99.90;;;10.59;79.79;98276.50;5054140;28;20526;-82
2022/09/20 00:41:40;;;;;;;4.93;2.77;;;9.20;99.90;;;10.66;78.88;98268.41;5069422;28;20547;-77
2022/09/20 00:44:51;;;;;;;5.00;2.43;;;9.20;99.90;;;10.43;79.70;98261.56;5068501;28;20469;-81
2022/09/20 00:47:29;;;;;;;5.93;2.70;;;9.10;99.90;;;10.52;78.94;98269.47;5049181;28;20834;-80
2022/09/20 00:50:05;;;;;;;3.70;2.80;;;9.10;99.90;;;10.53;78.75;98266.56;5072438;28;20973;-81
2022/09/20 00:52:35;;;;;;;3.97;2.73;;;9.00;99.90;;;10.27;80.76;98264.66;5072462;28;20461;-77
2022/09/20 00:55:09;;;;;;;5.93;3.40;;;8.90;99.90;;;10.27;79.78;98265.47;5070241;28;20943;-79
2022/09/20 00:57:38;;;;;;;5.63;2.63;;;8.80;99.90;;;10.34;79.47;98265.47;5067131;28;20459;-78
2022/09/20 01:00:09;;;;;;;5.90;2.40;;;8.70;99.90;;;10.09;80.06;98239.13;5090247;28;20526;-78
2022/09/20 01:02:43;;;;;;;5.17;3.33;;;8.70;99.90;;;9.97;81.18;98246.16;5072759;28;20446;-77
2022/09/20 01:05:12;;;;;;;3.33;2.83;;;8.70;99.90;;;10.11;80.43;98252.41;5072881;28;20472;-76
2022/09/20 01:07:41;;;;;;;5.13;2.70;;;8.70;99.90;;;10.25;79.47;98264.06;5073643;28;20514;-77
2022/09/20 01:10:08;;;;;;;4.10;2.63;;;8.80;99.90;;;10.09;80.63;98255.31;5070372;28;20484;-77
2022/09/20 01:12:39;;;;;;;5.20;2.77;;;8.90;99.90;;;10.37;79.90;98265.06;5071033;28;20468;-78
2022/09/20 01:15:09;;;;;;;4.80;2.77;;;8.90;99.90;;;10.40;80.40;98267.38;5069761;28;20469;-77
2022/09/20 01:17:46;;;;;;;3.30;2.93;;;9.00;99.90;;;10.42;79.77;98270.72;5053698;28;20462;-77
2022/09/20 01:20:22;;;;;;;6.03;3.10;;;9.00;99.90;;;10.57;79.41;98256.16;5060108;28;20545;-79
2022/09/20 01:23:17;;;;;;;5.00;3.40;;;9.10;99.90;;;10.64;79.18;98265.09;5072383;28;20515;-81
2022/09/20 01:26:27;;;;;;;3.10;2.57;;;9.10;99.90;;;10.37;79.61;98250.75;5063598;28;20461;-81
2022/09/20 01:29:10;;;;;;;3.47;2.20;;;9.10;99.90;;;10.54;79.74;98265.50;5065911;28;20634;-79
2022/09/20 01:31:45;;;;;;;5.30;2.57;;;9.20;99.90;;;10.68;78.48;98258.22;5067367;28;21126;-78
2022/09/20 01:34:16;;;;;;;6.00;2.30;;;9.20;99.90;;;10.51;79.38;98273.19;5069676;28;20523;-77
2022/09/20 01:36:48;;;;;;;9.93;3.00;;;9.20;99.90;;;10.60;78.66;98258.44;5072396;28;20961;-77
2022/09/20 01:39:32;;;;;;;2.60;2.37;;;9.30;99.90;;;10.76;78.00;98263.41;5071688;28;20445;-80
2022/09/20 01:42:05;;;;;;;4.43;2.57;;;9.30;99.90;;;10.72;77.79;98253.22;5075828;28;20473;-77
2022/09/20 01:44:40;;;;;;;2.83;2.60;;;9.30;99.90;;;10.85;77.71;98258.59;5064683;28;20489;-76
2022/09/20 01:47:23;;;;;;;3.10;2.67;;;9.30;99.90;;;10.75;77.93;98275.25;5064609;28;20500;-77
2022/09/20 01:50:03;;;;;;;5.90;3.00;;;9.40;99.90;;;10.66;78.31;98264.88;5101546;28;20471;-76
2022/09/20 01:53:21;;;;;;;5.07;2.73;;;9.30;99.90;;;10.67;78.87;98271.94;5064216;28;20986;-77
2022/09/20 01:56:39;;;;;;;9.50;3.03;;;9.30;99.90;;;10.65;79.21;98272.16;5063798;28;20516;-77
2022/09/20 02:00:01;;;;;;;5.87;3.20;;;9.30;99.90;;;10.51;78.07;98208.38;5063840;28;20515;-85
2022/09/20 02:03:36;;;;;;;4.40;2.60;;;9.30;99.90;;;10.77;78.18;98273.19;5063053;28;20448;-76
2022/09/20 02:06:38;;;;;;;3.43;2.90;;;9.30;99.90;;;10.51;79.32;98282.16;5028481;28;20453;-81
2022/09/20 02:09:44;;;;;;;4.53;3.07;;;9.20;99.90;;;10.44;79.55;98281.31;5062020;28;20930;-80
2022/09/20 02:12:35;;;;;;;6.10;3.50;;;9.30;99.90;;;10.33;80.39;98272.78;5063916;28;20466;-78
2022/09/20 02:15:15;;;;;;;3.60;3.27;;;9.20;99.90;;;10.60;79.97;98275.47;5055826;28;20479;-82
2022/09/20 02:17:55;;;;;;;7.53;3.47;;;9.20;99.90;;;10.46;80.19;98271.97;5063093;28;20537;-81
2022/09/20 02:20:39;;;;;;;5.97;3.20;;;9.10;99.90;;;10.49;80.39;98276.94;5064065;28;21019;-78
2022/09/20 02:23:22;;;;;;;5.33;3.23;;;9.10;99.90;;;10.27;80.26;98257.38;5074033;28;20473;-87
2022/09/20 02:26:20;;;;;;;4.03;3.20;;;9.10;99.90;;;10.28;79.77;98232.03;5069614;28;20555;-81
2022/09/20 02:29:02;;;;;;;3.40;2.70;;;9.10;99.90;;;10.71;79.32;98274.03;5059289;28;20525;-86
2022/09/20 02:31:49;;;;;;;5.63;3.70;;;9.10;99.90;;;10.61;79.33;98265.50;5060187;28;20981;-79
2022/09/20 02:34:46;;;;;;;4.20;3.27;;;9.10;99.90;;;10.66;79.96;98290.03;5060280;28;20460;-80
2022/09/20 02:37:53;;;;;;;8.03;3.43;;;9.00;99.90;;;10.74;79.64;98284.41;5068180;28;20534;-79
2022/09/20 02:40:40;;;;;;;3.83;3.53;;;9.00;99.90;;;10.59;79.58;98275.69;5063474;28;20477;-83
2022/09/20 02:43:17;;;;;;;5.77;3.53;;;9.00;99.90;;;10.57;80.51;98284.00;5066857;28;20456;-79
2022/09/20 02:45:54;;;;;;;6.30;3.67;;;9.00;99.90;;;10.65;80.28;98272.16;5072941;28;20454;-86
2022/09/20 02:48:38;;;;;;;4.10;3.70;;;9.00;99.90;;;10.41;80.38;98266.38;5058950;28;20525;-86
2022/09/20 02:51:17;;;;;;;5.20;3.90;;;8.90;99.90;;;9.91;80.77;98210.84;5070551;28;20473;-80
2022/09/20 02:53:55;;;;;;;4.80;3.70;;;8.90;99.90;;;10.68;79.52;98284.41;5077660;28;20526;-81
2022/09/20 03:03:57;;;;;;;6.80;3.77;;;8.80;99.90;;;10.37;80.63;98272.34;5107043;28;20476;-82
2022/09/20 03:06:33;;;;;;;5.37;4.23;;;8.80;99.90;;;10.41;80.25;98263.66;5073954;28;20449;-80
2022/09/20 03:09:12;;;;;;;5.63;3.70;;;8.80;99.90;;;10.56;79.58;98276.94;5075397;28;20481;-80
2022/09/20 03:11:51;;;;;;;6.60;3.70;;;8.80;99.90;;;10.44;80.79;98274.03;5072079;28;20483;-81
2022/09/20 03:14:24;;;;;;;7.83;4.20;;;8.80;99.90;;;10.35;81.12;98280.66;5082159;28;20454;-80
2022/09/20 03:17:05;;;;;;;7.20;4.20;;;8.80;99.90;;;10.18;81.21;98270.25;5074350;28;20525;-81
2022/09/20 03:19:51;;;;;;;8.53;4.27;;;8.80;99.90;;;10.07;81.35;98284.38;5071516;28;20461;-79
2022/09/20 03:22:31;;;;;;;8.83;4.20;;;8.80;99.90;;;9.83;81.50;98226.41;5070440;28;20446;-81
2022/09/20 03:25:27;;;;;;;5.43;4.20;;;8.80;99.90;;;10.23;81.02;98261.53;5064578;28;20480;-78
2022/09/20 03:28:11;;;;;;;6.13;4.63;;;8.80;99.90;;;10.51;80.37;98289.41;5069844;28;20967;-78
2022/09/20 03:30:56;;;;;;;10.13;4.67;;;8.80;99.90;;;10.69;80.25;98291.47;5073726;28;20457;-81
2022/09/20 03:33:40;;;;;;;8.97;4.50;;;8.90;99.90;;;10.41;80.85;98289.81;5075683;28;20513;-83
2022/09/20 03:36:29;;;;;;;5.50;4.57;;;8.90;99.90;;;10.35;80.86;98286.06;5074130;28;20492;-79
2022/09/20 03:39:25;;;;;;;6.40;4.27;;;8.90;99.90;;;10.33;80.78;98294.38;5075728;28;20450;-78
2022/09/20 03:42:16;;;;;;;7.33;4.73;;;8.90;99.90;;;9.94;80.77;98203.41;5074399;28;20452;-78
2022/09/20 03:45:26;;;;;;;9.43;4.77;;;8.90;99.90;;;10.22;81.19;98270.69;5071364;28;20579;-76
2022/09/20 03:48:23;;;;;;;4.73;4.23;;;9.00;99.90;;;10.49;79.82;98281.53;5085074;28;20466;-80
2022/09/20 03:51:12;;;;;;;6.67;5.23;;;9.00;99.90;;;10.13;81.24;98261.97;5066564;28;20445;-80
2022/09/20 03:54:33;;;;;;;6.37;5.13;;;8.90;99.90;;;10.67;79.63;98285.47;5077104;28;20436;-81
2022/09/20 03:57:38;;;;;;;6.53;5.07;;;9.00;99.90;;;10.39;80.27;98256.75;5063298;28;20461;-83
2022/09/20 04:00:22;;;;;;;6.60;4.40;;;9.00;99.90;;;10.36;81.02;98287.72;5073944;28;20845;-79
2022/09/20 04:03:17;;;;;;;7.10;5.20;;;9.00;99.90;;;10.00;80.73;98235.75;5073524;28;20449;-80
2022/09/20 04:06:01;;;;;;;6.40;4.97;;;9.00;99.90;;;10.40;81.17;98290.84;5076713;28;20461;-80
2022/09/20 04:09:08;;;;;;;8.33;5.13;;;9.00;99.90;;;10.37;81.27;98305.56;5075834;28;20474;-80
2022/09/20 04:11:49;;;;;;;6.40;4.80;;;9.00;99.90;;;10.14;81.41;98296.03;5075726;28;20458;-84
2022/09/20 04:14:30;;;;;;;7.33;6.30;;;9.00;99.90;;;10.17;81.92;98300.19;5074282;28;20462;-78
2022/09/20 04:17:06;;;;;;;8.27;5.63;;;9.00;99.90;;;10.04;82.49;98304.53;5074828;28;20958;-78
2022/09/20 04:19:40;;;;;;;9.07;5.33;;;8.90;99.90;;;10.23;81.73;98306.59;5069784;28;20934;-79
2022/09/20 04:22:09;;;;;;;13.47;6.03;;;8.90;99.90;;;10.11;82.68;98306.38;5065975;28;20460;-78
2022/09/20 04:24:49;;;;;;;8.87;6.00;;;8.90;99.90;;;10.24;81.72;98302.91;5094253;28;20507;-78
2022/09/20 04:27:22;;;;;;;6.00;5.20;;;8.90;99.90;;;10.33;81.19;98310.59;5054443;28;20480;-78
2022/09/20 04:29:58;;;;;;;10.20;5.47;;;9.00;99.90;;;10.25;82.34;98315.34;5069561;28;20475;-77
2022/09/20 04:32:33;;;;;;;9.23;5.03;;;9.00;99.90;;;9.95;81.81;98259.03;5072929;28;20475;-77
2022/09/20 04:38:11;;;;;;;9.10;4.20;;;9.00;99.90;;;10.13;81.72;98315.97;5071039;28;20465;-79
2022/09/20 04:41:05;;;;;;;6.83;5.40;;;9.00;99.90;;;10.36;80.68;98301.22;5053990;28;20456;-79
2022/09/20 04:44:48;;;;;;;10.87;4.93;;;9.10;99.90;;;10.33;80.51;98320.53;5054645;28;21351;-77
2022/09/20 04:48:05;;;;;;;8.80;4.60;;;9.10;99.90;;;10.44;80.47;98316.41;5010244;28;20601;-79
2022/09/20 04:51:16;;;;;;;7.80;5.17;;;9.10;99.90;;;10.19;80.64;98322.41;5058220;28;20445;-81
2022/09/20 04:54:36;;;;;;;9.03;5.00;;;9.10;99.90;;;9.94;82.08;98319.47;5048188;28;20981;-81
2022/09/20 04:57:38;;;;;;;8.37;5.57;;;9.00;99.90;;;9.97;81.89;98322.56;5078297;28;20453;-74
2022/09/20 05:00:12;;;;;;;6.93;4.43;;;8.90;99.90;;;9.91;81.62;98318.81;5069519;28;20455;-76
2022/09/20 05:03:43;;;;;;;11.37;5.03;;;8.90;99.90;;;9.82;81.86;98325.44;5066469;28;20473;-77
2022/09/20 05:06:44;;;;;;;13.57;6.13;;;8.80;99.90;;;9.79;82.62;98336.66;4999556;28;20455;-77
2022/09/20 05:09:45;;;;;;;9.83;6.97;;;8.70;99.90;;;9.97;81.08;98338.75;5057515;28;20561;-79
2022/09/20 05:12:52;;;;;;;7.90;5.60;;;8.60;99.90;;;9.64;81.30;98307.09;5043687;28;20545;-78
2022/09/20 05:15:40;;;;;;;8.60;5.70;;;8.60;99.90;;;9.86;81.74;98328.56;5058271;28;20512;-77
2022/09/20 05:18:46;;;;;;;9.60;5.90;;;8.70;99.90;;;10.06;80.51;98348.34;5064909;28;20465;-76
2022/09/20 05:21:53;;;;;;;10.33;6.40;;;8.70;99.90;;;9.94;81.28;98354.53;5066025;28;20546;-79
2022/09/20 05:25:00;;;;;;;7.93;6.80;;;8.70;99.90;;;10.02;80.48;98357.03;5057444;28;20988;-78
2022/09/20 05:27:41;;;;;;;8.80;6.40;;;8.80;99.90;;;10.21;80.09;98353.53;5056271;28;20467;-76
2022/09/20 05:30:22;;;;;;;12.23;6.30;;;8.90;99.90;;;10.16;79.74;98350.63;5083711;28;20549;-75
2022/09/20 05:33:09;;;;;;;12.50;6.30;;;8.90;99.90;;;10.29;78.88;98351.72;5055045;28;20452;-76
2022/09/20 05:35:46;;;;;;;8.93;5.50;;;9.00;99.90;;;10.31;79.36;98355.03;5056801;28;20522;-77
2022/09/20 05:38:23;;;;;;;6.00;5.30;;;9.10;99.90;;;10.43;78.18;98357.97;5064187;28;20604;-75
2022/09/20 05:41:07;;;;;;;12.00;6.83;;;9.10;99.90;;;10.60;78.05;98367.34;5063009;28;20554;-76
2022/09/20 05:43:46;;;;;;;7.47;5.80;;;9.20;99.90;;;10.61;77.58;98360.06;5057683;28;21361;-73
2022/09/20 05:46:25;;;;;;;7.87;5.33;;;9.30;99.90;;;10.53;77.89;98362.97;5076186;28;20536;-80
2022/09/20 05:48:58;;;;;;;9.03;5.50;;;9.30;98.30;;;10.47;77.96;98359.25;5085804;28;20478;-74
2022/09/20 05:51:47;;;;;;;7.47;5.37;;;9.20;98.80;;;10.52;77.71;98370.25;5054199;28;21099;-78
2022/09/20 05:54:35;;;;;;;8.60;6.10;;;9.30;98.50;;;10.57;77.32;98364.25;5061575;28;20547;-76
2022/09/20 05:57:19;;;;;;;8.13;5.97;;;9.30;98.50;;;10.68;77.07;98360.91;5055195;28;20501;-75
2022/09/20 06:00:00;;;;;;;8.03;6.43;;;9.30;98.20;;;10.66;77.10;98373.78;5054705;28;20579;-77
2022/09/20 06:02:43;;;;;;;10.37;6.30;;;9.40;97.70;;;10.66;77.09;98368.38;5055843;28;21213;-77
2022/09/20 06:05:16;;;;;;;10.00;5.93;;;9.40;97.00;;;10.63;76.71;98366.94;5056020;28;20462;-77
2022/09/20 06:08:16;;;;;;;9.13;6.10;;;9.50;96.20;;;10.66;76.27;98349.47;5056107;28;20539;-78
2022/09/20 06:11:04;;;;;;;9.13;6.13;;;9.50;95.10;;;10.66;76.33;98373.78;5063429;28;21275;-77
2022/09/20 06:13:58;;;;;;;9.80;6.10;;;9.50;95.30;;;10.69;76.21;98380.66;5069958;28;20443;-77
2022/09/20 06:16:39;;;;;;;9.47;6.40;;;9.40;95.80;;;10.58;76.96;98385.63;5044322;28;20469;-77
2022/09/20 06:19:18;;;;;;;8.30;6.50;;;9.40;96.00;;;10.94;76.26;98380.84;5052537;28;20465;-76
2022/09/20 06:21:52;;;;;;;15.80;8.77;;;9.60;96.10;;;11.40;74.17;98383.69;5053249;28;20549;-78
2022/09/20 06:24:33;;;;;;;10.50;6.43;;;9.90;94.80;;;11.51;73.44;98379.50;5055884;28;20456;-76
2022/09/20 06:27:07;;;;;;;7.50;6.60;;;10.10;92.70;;;11.72;72.69;98359.44;5057683;28;20462;-77
2022/09/20 06:29:38;;;;;;;15.50;6.90;;;10.40;91.80;;;11.92;72.25;98364.78;5081753;28;20523;-78
2022/09/20 06:32:07;;;;;;;8.80;6.60;;;10.60;90.80;;;12.35;71.07;98373.34;5056017;28;20468;-77
2022/09/20 06:34:35;;;;;;;10.50;7.10;;;10.80;90.60;;;12.31;70.53;98359.38;5053055;28;20461;-76
2022/09/20 06:43:20;;;;;;;9.77;5.40;;;10.70;90.20;;;11.41;72.43;98371.84;5017077;28;20547;-78
2022/09/20 06:45:47;;;;;;;7.30;5.70;;;10.40;90.40;;;11.42;72.75;98373.50;5041243;28;20556;-76
2022/09/20 06:48:15;;;;;;;7.00;5.30;;;10.30;90.60;;;11.71;71.64;98385.69;5059662;28;20461;-75
2022/09/20 06:50:44;;;;;;;8.40;6.00;;;10.50;90.50;;;11.66;72.55;98382.78;5052899;28;21273;-76
2022/09/20 06:53:17;;;;;;;12.27;6.23;;;10.50;90.60;;;11.57;72.98;98381.38;5065424;28;20567;-77
2022/09/20 06:55:47;;;;;;;11.93;6.53;;;10.50;90.80;;;11.84;72.79;98390.22;5060505;28;20457;-77
2022/09/20 06:58:14;;;;;;;8.33;6.10;;;10.50;91.40;;;12.09;71.34;98385.97;5055450;28;20918;-75
2022/09/20 07:00:41;;;;;;;12.40;5.10;;;10.80;90.30;;;12.44;70.56;98380.97;5059067;28;20475;-75
2022/09/20 07:03:11;;;;;;;12.37;5.80;;;11.10;90.00;;;12.19;71.36;98330.28;5060150;28;20495;-76
2022/09/20 07:05:38;;;;;;;6.47;5.87;;;11.30;89.80;;;12.61;70.66;98386.72;5062050;28;20496;-74
2022/09/20 07:08:06;;;;;;;7.50;5.37;;;11.40;89.40;;;12.81;70.83;98387.59;5055249;28;20458;-76
2022/09/20 07:10:34;;;;;;;6.33;5.43;;;11.50;89.40;;;12.30;71.06;98393.78;5064028;28;20483;-76
2022/09/20 07:13:05;;;;;;;6.83;6.17;;;11.30;88.70;;;11.61;72.95;98379.91;5068782;28;20485;-78
2022/09/20 07:15:34;;;;;;;9.63;6.57;;;10.80;90.30;;;11.56;74.43;98399.47;5062807;28;20505;-78
2022/09/20 07:18:01;;;;;;;7.13;6.43;;;10.50;91.50;;;11.43;74.02;98394.09;5068301;28;20509;-76
2022/09/20 07:20:29;;;;;;;7.63;6.03;;;10.50;91.90;;;11.46;74.93;98394.50;5065747;28;20521;-81
2022/09/20 07:22:56;;;;;;;8.30;6.40;;;10.40;92.90;;;11.56;74.79;98404.88;5067506;28;20499;-81
2022/09/20 07:25:24;;;;;;;9.40;6.53;;;10.50;92.60;;;12.14;73.53;98395.13;5056265;28;20457;-81
2022/09/20 07:27:51;;;;;;;11.93;6.40;;;10.70;92.60;;;12.33;72.20;98395.22;5062559;28;20544;-79
2022/09/20 07:30:20;;;;;;;9.37;7.97;;;11.00;91.60;;;12.06;71.04;98394.53;5059524;28;20549;-80
2022/09/20 07:32:48;;;;;;;15.30;8.37;;;11.00;89.70;;;12.01;72.34;98405.97;5074948;28;20483;-80
2022/09/20 07:35:16;;;;;;;8.47;7.60;;;11.00;90.40;;;11.82;71.74;98410.44;5055032;28;21146;-79
2022/09/20 07:37:43;;;;;;;11.80;8.13;;;10.80;89.50;;;12.00;72.47;98412.44;5061212;28;20966;-79
2022/09/20 07:40:13;;;;;;;10.30;8.10;;;10.90;90.40;;;11.43;72.81;98326.47;5056477;28;20493;-79
2022/09/20 07:42:40;;;;;;;18.93;8.20;;;10.90;90.60;;;12.30;71.91;98411.91;5062469;28;20456;-75
2022/09/20 07:45:10;;;;;;;13.07;7.97;;;11.10;90.30;;;12.18;71.55;98406.34;5064399;28;20463;-74
2022/09/20 07:47:40;;;;;;;7.60;6.90;;;11.20;88.80;;;12.17;70.44;98416.34;5055908;28;20459;-73
2022/09/20 07:50:10;;;;;;;12.80;8.60;;;11.20;87.10;;;12.29;71.09;98412.97;5059176;28;20506;-72
2022/09/20 07:52:37;;;;;;;9.57;7.30;;;11.20;88.10;;;12.01;70.03;98357.22;5069138;28;20483;-76
2022/09/20 07:55:05;;;;;;;10.03;5.87;;;11.30;87.40;;;12.40;69.96;98419.56;5096978;28;20473;-74
2022/09/20 07:57:37;;;;;;;8.70;5.80;;;11.30;86.80;;;12.35;69.34;98424.81;5090795;28;20485;-72
2022/09/20 08:00:07;;;;;;;9.37;5.23;;;11.40;86.20;;;12.11;69.96;98428.06;5092769;28;20551;-82
2022/09/20 08:02:35;;;;;;;12.27;6.87;;;11.20;85.80;;;12.55;69.28;98427.41;5058292;28;20489;-73
2022/09/20 08:05:05;;;;;;;6.10;5.03;;;11.40;86.70;;;12.72;68.81;98428.53;5071327;28;20561;-75
2022/09/20 08:07:32;;;;;;;5.83;5.33;;;11.50;86.20;;;12.71;67.62;98426.88;5070176;28;20451;-73
2022/09/20 08:10:00;;;;;;;8.23;5.97;;;11.70;85.00;;;13.16;67.72;98428.59;5064907;28;20579;-75
2022/09/20 08:12:28;;;;;;;11.03;5.43;;;11.90;86.30;;;13.12;66.89;98432.00;5057163;28;20497;-76
2022/09/20 08:14:55;;;;;;;6.80;4.90;;;12.00;84.50;;;13.34;65.82;98424.25;5060396;28;20457;-71
2022/09/20 08:17:22;;;;;;;7.40;5.33;;;12.00;83.90;;;13.52;65.30;98426.22;5054231;28;20455;-78
2022/09/20 08:19:52;;;;;;;9.07;5.30;;;12.20;83.80;;;13.59;65.51;98432.41;5058084;28;20451;-73
2022/09/20 08:22:20;;;;;;;8.70;5.37;;;12.30;83.60;;;13.74;64.95;98437.47;5060965;28;20450;-79
2022/09/20 08:24:48;;;;;;;6.27;4.00;;;12.60;83.10;;;13.60;64.44;98433.22;5061490;28;20577;-72
2022/09/20 08:27:15;;;;;;;9.03;3.80;;;12.50;82.60;;;13.33;65.05;98433.47;5061224;28;20576;-75
2022/09/20 08:29:42;;;;;;;7.47;4.40;;;12.40;82.40;;;13.54;64.93;98443.09;5062865;28;20554;-76
2022/09/20 08:32:10;;;;;;;5.60;3.80;;;12.40;82.50;;;13.48;64.71;98438.59;5065596;28;20478;-73
2022/09/20 08:34:39;;;;;;;11.97;4.67;;;12.30;82.50;;;13.67;64.60;98427.72;5059641;28;20496;-81
2022/09/20 08:37:06;;;;;;;7.60;3.40;;;12.40;82.80;;;13.78;63.07;98443.28;5068821;28;20454;-75
2022/09/20 08:39:35;;;;;;;8.00;4.30;;;12.60;81.70;;;13.57;63.57;98433.69;5062885;28;20527;-73
2022/09/20 08:42:14;;;;;;;4.60;3.60;;;12.60;81.40;;;13.75;64.07;98441.03;5060191;28;20953;-71
2022/09/20 08:44:51;;;;;;;6.90;3.47;;;12.70;82.10;;;13.61;63.54;98443.03;5063563;28;20491;-71
2022/09/20 08:47:22;;;;;;;6.27;4.00;;;12.60;81.20;;;13.62;63.35;98441.97;5093717;28;20814;-75
2022/09/20 08:49:52;;;;;;;7.73;3.53;;;12.50;81.30;;;13.16;64.61;98444.06;5061676;28;20482;-75
2022/09/20 08:52:27;;;;;;;6.80;4.30;;;12.30;81.30;;;13.37;65.06;98445.53;5067854;28;20457;-74
2022/09/20 08:54:56;;;;;;;8.50;3.50;;;12.20;82.30;;;13.22;65.50;98443.16;5063235;28;20454;-74
2022/09/20 08:57:28;;;;;;;7.13;4.00;;;12.20;82.30;;;13.39;63.88;98443.44;5058503;28;20494;-73
2022/09/20 08:59:56;;;;;;;6.33;3.17;;;12.20;81.60;;;13.45;63.36;98444.47;5058846;28;20542;-73
2022/09/20 09:02:23;;;;;;;10.97;3.23;;;12.40;80.70;;;13.68;61.37;98445.69;5066287;28;20461;-77
2022/09/20 09:04:52;;;;;;;7.97;3.13;;;12.60;79.70;;;13.84;61.90;98447.78;5058784;28;20487;-72
2022/09/20 09:07:21;;;;;;;5.73;2.70;;;12.80;79.90;;;14.01;60.91;98442.59;5073611;28;20463;-77
2022/09/20 09:09:51;;;;;;;9.20;3.10;;;13.10;78.90;;;13.73;62.71;98445.84;5056627;28;20489;-73
2022/09/20 09:12:25;;;;;;;5.47;2.60;;;13.00;79.90;;;13.39;62.53;98453.44;5055111;28;20456;-75
2022/09/20 09:14:54;;;;;;;6.73;3.13;;;12.70;79.30;;;12.87;65.33;98459.94;5061910;28;20495;-71
2022/09/20 09:17:24;;;;;;;8.90;3.43;;;12.20;80.90;;;12.75;66.14;98447.06;5058550;28;21143;-72
2022/09/20 09:19:54;;;;;;;6.30;2.60;;;11.90;81.60;;;12.34;67.35;98453.78;5063531;28;20457;-74
2022/09/20 09:22:26;;;;;;;8.10;3.40;;;11.60;82.40;;;12.62;67.36;98463.41;5093283;28;20948;-80
2022/09/20 09:25:22;;;;;;;5.13;3.37;;;11.60;83.10;;;12.98;66.43;98448.38;5058317;28;20449;-79
2022/09/20 09:27:55;;;;;;;5.60;2.27;;;11.90;82.70;;;13.33;64.98;98441.59;5059870;28;20992;-72
2022/09/20 09:30:27;;;;;;;5.90;2.93;;;12.20;82.20;;;13.43;63.19;98432.97;5058027;28;20488;-76
2022/09/20 09:33:22;;;;;;;5.13;2.80;;;12.40;80.50;;;13.78;63.27;98435.13;5064507;28;20489;-71
2022/09/20 09:35:57;;;;;;;7.20;2.57;;;12.60;80.70;;;14.03;62.41;98429.59;5063984;28;20968;-73
2022/09/20 09:38:28;;;;;;;5.20;3.07;;;12.80;81.30;;;14.26;62.81;98429.97;5059626;28;20458;-75
2022/09/20 09:40:57;;;;;;;5.20;2.73;;;12.90;81.10;;;13.70;63.21;98428.13;5058886;28;20520;-76
2022/09/20 09:43:29;;;;;;;3.20;2.20;;;12.90;80.30;;;13.31;62.68;98414.69;5060495;28;20535;-73
2022/09/20 09:46:17;;;;;;;5.60;2.45;;;12.50;79.70;;;13.55;63.57;98427.66;5057166;28;20454;-75
2022/09/20 09:48:48;;;;;;;3.60;2.00;;;12.50;80.60;;;13.48;61.12;98408.72;5057906;28;20468;-76
2022/09/20 09:51:22;;;;;;;4.23;2.30;;;12.70;78.90;;;13.45;63.59;98415.41;5059111;28;20580;-87
2022/09/20 09:53:49;;;;;;;5.13;2.87;;;12.50;80.40;;;13.56;64.03;98427.41;5059282;28;20447;-82
2022/09/20 09:56:41;;;;;;;5.63;2.90;;;12.50;81.30;;;13.38;64.97;98424.66;5046988;28;20555;-77
2022/09/20 09:59:39;;;;;;;3.97;2.10;;;12.50;81.30;;;13.31;65.50;98420.13;5054909;28;20898;-76
2022/09/20 10:02:27;;;;;;;2.90;2.03;;;12.50;81.50;;;13.32;63.61;98424.50;5060162;28;20854;-74
2022/09/20 10:05:02;;;;;;;4.47;2.30;;;12.60;80.20;;;14.10;62.35;98421.38;5043209;28;20465;-78
2022/09/20 10:07:40;;;;;;;3.73;2.20;;;12.90;80.60;;;14.74;59.25;98420.13;5051158;28;20462;-77
2022/09/20 10:10:20;;;;;;;4.43;2.43;;;13.50;79.00;;;15.35;57.80;98414.50;5057432;28;21054;-76
2022/09/20 10:13:03;;;;;;;3.67;1.20;;;14.10;77.60;;;15.66;54.43;98419.78;5058004;28;20494;-76
2022/09/20 10:15:41;;;;;;;2.23;1.07;;;14.60;74.30;;;15.30;54.04;98412.50;5047360;28;21071;-75
2022/09/20 10:18:34;;;;;;;2.63;1.00;;;14.40;72.50;;;14.93;55.63;98415.41;5058368;28;20504;-75
2022/09/20 10:21:15;;;;;;;5.17;1.63;;;14.00;72.70;;;14.95;55.12;98426.91;5056685;28;20487;-81
2022/09/20 10:23:59;;;;;;;2.20;1.33;;;14.00;73.20;;;14.83;56.36;98418.69;5053956;28;20493;-77
2022/09/20 10:26:55;;;;;;;1.90;1.17;;;13.60;74.30;;;15.37;55.05;98433.31;5057149;28;20481;-76
2022/09/20 10:29:39;;;;;;;3.83;1.93;;;14.00;74.30;;;15.17;56.00;98423.59;5051666;28;20460;-77
2022/09/20 10:32:25;;;;;;;7.70;1.83;;;14.00;74.20;;;14.62;57.81;98425.47;5058072;28;20539;-77
2022/09/20 10:35:13;;;;;;;2.60;1.47;;;13.80;75.00;;;14.09;60.14;98433.31;5051205;28;20461;-77
2022/09/20 10:37:53;;;;;;;2.93;0.97;;;13.20;76.40;;;13.81;58.08;98434.69;5057498;28;20571;-76
2022/09/20 10:43:13;;;;;;;3.57;2.20;;;13.00;74.30;;;14.35;57.59;98428.59;5058498;28;20451;-76
2022/09/20 10:43:40;;;;;;;2.50;1.50;;;13.20;75.10;;;14.75;56.70;98437.25;5064627;28;21000;-76
2022/09/20 10:46:20;;;;;;;3.77;1.60;;;13.50;74.90;;;15.11;56.25;98419.94;5058296;28;20549;-81
2022/09/20 10:49:06;;;;;;;3.13;1.60;;;13.80;74.70;;;14.93;56.93;98423.56;5054215;28;20541;-79
2022/09/20 10:51:46;;;;;;;4.43;2.17;;;13.90;74.70;;;14.96;56.21;98423.13;5055593;28;20626;-76
2022/09/20 10:54:28;;;;;;;4.30;1.90;;;14.00;73.90;;;14.76;55.74;98417.16;5056963;28;20462;-77
2022/09/20 10:57:18;;;;;;;3.83;1.57;;;14.10;73.20;;;14.69;57.45;98423.50;5053247;28;20561;-76
2022/09/20 10:59:53;;;;;;;1.60;1.40;;;13.90;74.30;;;14.29;59.35;98421.34;5056442;28;20961;-76
2022/09/20 11:02:57;;;;;;;2.70;1.70;;;13.60;75.10;;;13.54;59.56;98331.00;5057379;28;20693;-78
2022/09/20 11:05:35;;;;;;;4.90;2.23;;;13.50;75.80;;;14.20;60.86;98428.16;5051132;28;20455;-79
2022/09/20 11:08:11;;;;;;;3.73;2.30;;;13.30;77.10;;;13.83;61.39;98421.69;5050981;28;20556;-79
2022/09/20 11:10:45;;;;;;;5.73;2.03;;;13.10;77.10;;;14.06;59.70;98425.63;5058652;28;20477;-78
2022/09/20 11:13:25;;;;;;;3.93;2.30;;;13.20;76.30;;;14.03;58.81;98420.66;5062557;28;21269;-79
2022/09/20 11:15:59;;;;;;;5.00;2.63;;;13.10;75.50;;;14.44;57.44;98421.75;5060559;28;20493;-82
2022/09/20 11:18:37;;;;;;;2.93;2.00;;;13.30;74.70;;;14.64;56.91;98417.09;5067259;28;20955;-79
2022/09/20 11:21:10;;;;;;;4.57;2.27;;;13.60;74.30;;;15.07;55.12;98423.34;5062016;28;20824;-81
2022/09/20 11:23:49;;;;;;;6.20;2.20;;;14.00;73.50;;;14.67;54.88;98420.19;5049523;28;20462;-80
2022/09/20 11:26:26;;;;;;;4.40;2.40;;;13.80;71.90;;;14.84;55.91;98422.25;5060701;28;20461;-80
2022/09/20 11:28:58;;;;;;;3.10;2.03;;;13.80;73.10;;;14.61;55.54;98421.09;5062308;28;20474;-82
2022/09/20 11:31:30;;;;;;;5.73;2.37;;;13.90;72.50;;;14.63;54.28;98426.31;5055002;28;21090;-79
2022/09/20 11:34:05;;;;;;;2.57;1.90;;;13.70;71.20;;;14.45;54.87;98417.16;5061825;28;20463;-81
2022/09/20 11:36:42;;;;;;;3.27;2.03;;;13.70;71.30;;;14.77;53.68;98429.69;5055884;28;20577;-81